Time;durP1;ratioP1;P1;durP2;ratioP2;P2;SDS_P1;SDS_P2;PMS_P1;PMS_P2;Temp;Humidity;BMP_temperature;BMP_pressure;BME280_temperature;BME280_humidity;BME280_pressure;Samples;Min_cycle;Max_cycle;Signal;HPM_P1;HPM_P2
2021/04/13 00:01:24;;;;;;;34.80;24.50;;;;;;;10.19;61.77;99726.48;1745342;82;21147;-43
2021/04/13 00:04:11;;;;;;;38.53;25.32;;;;;;;10.15;61.83;99726.37;1745327;82;21064;-46
2021/04/13 00:06:46;;;;;;;37.83;25.57;;;;;;;10.13;61.85;99728.63;1744851;82;21437;-44
2021/04/13 00:09:31;;;;;;;35.73;24.27;;;;;;;10.15;61.95;99728.29;1745306;82;21076;-43
2021/04/13 00:12:06;;;;;;;57.38;25.43;;;;;;;10.17;61.95;99733.59;1716947;82;21190;-43
2021/04/13 00:14:38;;;;;;;37.80;24.12;;;;;;;10.13;61.96;99719.14;1745486;82;21135;-43
2021/04/13 00:17:11;;;;;;;34.18;24.15;;;;;;;10.25;61.86;99738.65;1745504;82;21182;-44
2021/04/13 00:19:58;;;;;;;40.03;26.00;;;;;;;10.34;61.70;99736.56;1717213;82;21016;-43
2021/04/13 00:22:26;;;;;;;37.83;25.77;;;;;;;10.37;61.50;99735.28;1745477;82;21751;-43
2021/04/13 00:25:58;;;;;;;40.88;27.67;;;;;;;10.46;61.47;99732.41;1843015;76;22722;-43
2021/04/13 00:28:37;;;;;;;37.80;25.72;;;;;;;10.41;61.50;99734.02;1784231;80;21003;-43
2021/04/13 00:31:07;;;;;;;45.48;26.97;;;;;;;10.40;61.55;99728.40;1783931;80;21198;-43
2021/04/13 00:33:38;;;;;;;37.63;26.00;;;;;;;10.43;61.55;99728.48;1784198;80;21074;-44
2021/04/13 00:36:11;;;;;;;38.58;25.70;;;;;;;10.42;61.60;99726.11;1784246;80;21621;-43
2021/04/13 00:38:52;;;;;;;37.48;25.30;;;;;;;10.46;61.67;99729.69;1754716;80;21043;-42
2021/04/13 00:41:31;;;;;;;41.53;26.00;;;;;;;10.49;61.45;99729.02;1784374;80;21043;-43
2021/04/13 00:44:06;;;;;;;40.30;26.68;;;;;;;10.51;61.26;99729.43;1784107;80;21361;-44
2021/04/13 00:46:55;;;;;;;32.08;23.47;;;;;;;10.53;61.22;99733.95;1783990;80;21058;-42
2021/04/13 00:49:28;;;;;;;38.40;25.48;;;;;;;10.54;61.14;99731.46;1784233;80;21007;-43
2021/04/13 00:52:03;;;;;;;42.27;25.85;;;;;;;10.52;61.25;99735.08;1784104;80;21142;-43
2021/04/13 00:54:44;;;;;;;37.50;25.95;;;;;;;10.49;61.15;99737.14;1784146;80;21174;-44
2021/04/13 00:57:19;;;;;;;38.60;26.02;;;;;;;10.51;61.00;99736.20;1783925;80;21192;-44
2021/04/13 00:59:49;;;;;;;42.67;26.77;;;;;;;10.53;60.92;99736.66;1784069;80;21637;-44
2021/04/13 01:02:30;;;;;;;37.30;26.40;;;;;;;10.52;60.87;99743.21;1784186;80;21154;-44
2021/04/13 01:05:14;;;;;;;37.90;27.10;;;;;;;10.49;60.94;99741.77;1784103;80;21576;-44
2021/04/13 01:07:49;;;;;;;36.53;25.43;;;;;;;10.48;61.05;99745.05;1784014;80;21151;-44
2021/04/13 01:10:36;;;;;;;41.40;26.70;;;;;;;10.52;61.14;99745.92;1784224;79;21194;-44
2021/04/13 01:13:15;;;;;;;40.28;27.13;;;;;;;10.53;61.06;99740.73;1753881;80;21181;-44
2021/04/13 01:15:48;;;;;;;41.37;28.12;;;;;;;10.56;61.02;99748.71;1784075;80;21755;-44
2021/04/13 01:18:24;;;;;;;38.98;27.37;;;;;;;10.58;61.00;99749.95;1784091;79;21114;-44
2021/04/13 01:21:16;;;;;;;42.62;27.00;;;;;;;10.60;61.01;99739.53;1856327;76;22732;-43
2021/04/13 01:23:58;;;;;;;36.45;26.15;;;;;;;10.59;60.98;99739.90;1829082;78;21050;-43
2021/04/13 01:26:21;;;;;;;42.25;28.02;;;;;;;10.61;60.84;99737.61;1827513;77;21280;-43
2021/04/13 01:28:48;;;;;;;40.98;27.93;;;;;;;10.65;60.69;99737.16;1825622;78;21579;-43
2021/04/13 01:34:24;;;;;;;37.90;26.33;;;;;;;10.66;60.57;99730.00;1825512;78;21015;-43
2021/04/13 01:42:17;;;;;;;38.23;26.65;;;;;;;10.57;60.77;99725.89;1754518;81;21361;-43
2021/04/13 01:44:52;;;;;;;42.17;27.55;;;;;;;10.56;60.86;99731.88;1747274;82;21369;-43
2021/04/13 01:47:22;;;;;;;43.05;27.60;;;;;;;10.55;60.94;99730.33;1722767;83;21087;-43
2021/04/13 01:49:57;;;;;;;38.75;27.75;;;;;;;10.55;60.88;99725.47;1747234;82;21119;-43
2021/04/13 01:52:39;;;;;;;40.78;27.42;;;;;;;10.54;60.82;99724.69;1722991;83;21581;-43
2021/04/13 01:55:20;;;;;;;38.92;26.60;;;;;;;10.52;60.82;99725.59;1747318;82;21020;-43
2021/04/13 01:58:17;;;;;;;40.28;26.55;;;;;;;10.50;60.92;99724.38;1722912;83;22258;-43
2021/04/13 02:01:18;;;;;;;37.85;26.62;;;;;;;10.48;61.42;99732.06;1747225;82;21077;-43
2021/04/13 02:04:03;;;;;;;41.23;26.48;;;;;;;10.46;61.53;99735.11;1722775;83;21032;-43
2021/04/13 02:06:36;;;;;;;39.00;25.88;;;;;;;10.51;61.63;99725.37;1739479;82;21626;-43
2021/04/13 02:09:34;;;;;;;42.20;27.45;;;;;;;10.61;61.43;99722.13;1722855;83;21190;-42
2021/04/13 02:11:59;;;;;;;41.90;27.60;;;;;;;10.70;61.22;99729.52;1745355;82;21319;-42
2021/04/13 02:14:33;;;;;;;42.38;26.42;;;;;;;10.76;60.98;99727.33;1722961;83;21637;-42
2021/04/13 02:17:07;;;;;;;41.05;28.65;;;;;;;10.82;60.60;99726.72;1716741;82;21052;-43
2021/04/13 02:19:35;;;;;;;43.40;27.87;;;;;;;10.88;60.31;99728.03;1722847;83;21638;-42
2021/04/13 02:22:09;;;;;;;44.67;28.38;;;;;;;10.88;60.21;99726.67;1747322;81;21038;-42
2021/04/13 02:24:38;;;;;;;41.15;27.70;;;;;;;10.86;60.23;99726.23;1742203;82;21195;-41
2021/04/13 02:27:19;;;;;;;36.88;27.70;;;;;;;10.84;60.28;99719.59;1737317;82;21185;-43
2021/04/13 02:29:52;;;;;;;42.98;28.85;;;;;;;10.85;60.15;99724.65;1779677;80;21154;-43
2021/04/13 02:32:29;;;;;;;46.23;30.60;;;;;;;10.85;60.09;99721.15;1748689;82;21158;-43
2021/04/13 02:35:02;;;;;;;47.00;30.30;;;;;;;10.81;60.27;99728.42;1772407;80;21589;-43
2021/04/13 02:37:40;;;;;;;48.10;30.08;;;;;;;10.72;60.40;99724.54;1779161;80;22519;-43
2021/04/13 02:40:14;;;;;;;43.25;30.35;;;;;;;10.63;60.61;99725.30;1748621;82;21186;-43
2021/04/13 02:42:45;;;;;;;47.78;31.17;;;;;;;10.58;60.84;99717.98;1751407;80;21178;-43
2021/04/13 02:45:33;;;;;;;39.73;28.57;;;;;;;10.51;61.09;99724.58;1779809;80;21605;-43
2021/04/13 02:48:09;;;;;;;42.62;28.62;;;;;;;10.43;61.22;99721.70;1748688;82;21162;-43
2021/04/13 02:50:41;;;;;;;44.30;30.57;;;;;;;10.43;61.34;99714.14;1748313;82;22125;-43
2021/04/13 02:53:09;;;;;;;48.10;31.07;;;;;;;10.48;61.34;99722.01;1779033;80;21447;-43
2021/04/13 02:55:40;;;;;;;50.00;30.97;;;;;;;10.42;61.44;99714.70;1748093;82;21158;-43
2021/04/13 02:58:10;;;;;;;45.08;31.52;;;;;;;10.38;61.59;99710.33;1771817;80;21035;-43
2021/04/13 03:00:48;;;;;;;48.05;31.23;;;;;;;10.34;61.75;99718.94;1779055;80;21122;-43
2021/04/13 03:03:26;;;;;;;48.00;31.15;;;;;;;10.30;61.87;99714.01;1748196;82;21383;-43
2021/04/13 03:05:56;;;;;;;48.63;31.68;;;;;;;10.27;61.99;99711.97;1779096;80;21186;-43
2021/04/13 03:08:27;;;;;;;42.05;31.65;;;;;;;10.26;62.04;99711.19;1779063;80;21123;-43
2021/04/13 03:10:56;;;;;;;;;;;;;;;10.25;62.07;99713.70;1720062;82;21163;-43
2021/04/13 03:13:28;;;;;;;42.17;29.07;;;;;;;10.25;62.02;99704.78;1779090;80;20266;-43
2021/04/13 03:15:59;;;;;;;46.80;31.12;;;;;;;10.18;62.22;99708.65;1748103;82;21543;-43
2021/04/13 03:18:33;;;;;;;49.65;31.55;;;;;;;10.17;62.37;99713.27;1743105;82;21166;-43
2021/04/13 03:21:25;;;;;;;48.42;31.97;;;;;;;10.12;62.56;99711.38;1779071;80;21059;-43
2021/04/13 03:23:53;;;;;;;56.23;34.08;;;;;;;10.06;62.81;99716.83;1748091;82;22212;-43
2021/04/13 03:26:31;;;;;;;53.15;33.70;;;;;;;10.01;62.94;99711.09;1770042;80;21687;-43
2021/04/13 03:29:10;;;;;;;50.48;32.38;;;;;;;9.97;63.13;99708.27;1739815;82;22288;-43
2021/04/13 03:31:37;;;;;;;47.45;32.55;;;;;;;9.95;63.29;99711.91;1716705;83;21038;-43
2021/04/13 03:34:06;;;;;;;42.93;30.10;;;;;;;9.90;63.40;99714.87;1748137;82;21633;-43
2021/04/13 03:36:36;;;;;;;51.53;31.57;;;;;;;9.93;63.45;99713.38;1725186;82;21064;-43
2021/04/13 03:39:09;;;;;;;45.48;31.55;;;;;;;10.00;63.36;99710.31;1736332;81;22190;-43
2021/04/13 03:41:45;;;;;;;49.05;32.95;;;;;;;10.02;63.34;99712.68;1756412;81;21344;-43
2021/04/13 03:44:16;;;;;;;49.05;32.38;;;;;;;9.98;63.41;99716.63;1756463;81;22181;-43
2021/04/13 03:46:45;;;;;;;52.65;34.23;;;;;;;9.94;63.57;99709.54;1756562;81;21644;-42
2021/04/13 03:49:21;;;;;;;53.17;33.40;;;;;;;9.91;63.67;99711.03;1756586;81;22200;-43
2021/04/13 03:51:54;;;;;;;40.55;29.85;;;;;;;9.88;63.77;99710.35;1756391;81;21219;-43
2021/04/13 03:54:32;;;;;;;48.23;31.17;;;;;;;9.87;63.81;99711.51;1756418;81;21379;-43
2021/04/13 03:57:00;;;;;;;47.83;32.10;;;;;;;9.91;63.83;99709.68;1756498;81;21620;-43
2021/04/13 03:59:36;;;;;;;51.58;32.28;;;;;;;9.95;63.80;99714.62;1756415;81;21170;-43
2021/04/13 04:02:08;;;;;;;48.68;31.82;;;;;;;9.97;63.77;99716.40;1756323;81;21178;-43
2021/04/13 04:04:42;;;;;;;53.45;34.08;;;;;;;10.03;63.67;99721.00;1756410;81;21601;-43
2021/04/13 04:07:32;;;;;;;48.08;32.40;;;;;;;10.08;63.56;99720.75;1756451;81;21487;-44
2021/04/13 04:09:59;;;;;;;51.15;32.38;;;;;;;10.14;63.51;99718.58;1755884;81;22109;-43
2021/04/13 04:12:31;;;;;;;47.80;33.33;;;;;;;10.15;63.40;99722.88;1726862;81;21174;-42
2021/04/13 04:15:09;;;;;;;50.35;32.75;;;;;;;10.15;63.29;99716.09;1756400;81;21492;-42
2021/04/13 04:17:48;;;;;;;50.60;33.48;;;;;;;10.16;63.33;99727.19;1756383;81;21138;-42
2021/04/13 04:20:16;;;;;;;56.25;33.00;;;;;;;10.17;63.28;99731.45;1727261;81;22148;-42
2021/04/13 04:22:54;;;;;;;47.53;33.35;;;;;;;10.12;63.44;99737.88;1756262;81;21420;-42
2021/04/13 04:25:33;;;;;;;52.05;33.90;;;;;;;10.06;63.63;99729.81;1756393;81;21182;-43
2021/04/13 04:28:07;;;;;;;48.70;33.83;;;;;;;10.01;63.82;99742.25;1769276;81;21210;-42
2021/04/13 04:30:35;;;;;;;53.60;33.63;;;;;;;9.94;63.99;99741.48;1749395;82;21628;-42
2021/04/13 04:33:04;;;;;;;46.35;32.25;;;;;;;9.89;64.26;99739.02;1750502;81;21149;-41
2021/04/13 04:35:44;;;;;;;44.85;31.52;;;;;;;9.88;64.27;99742.85;1750372;82;21166;-43
2021/04/13 04:38:32;;;;;;;48.78;33.65;;;;;;;9.89;64.32;99740.37;1750501;82;21226;-43
2021/04/13 04:41:07;;;;;;;54.00;33.92;;;;;;;9.86;64.44;99738.92;1734392;82;21223;-43
2021/04/13 04:43:58;;;;;;;51.50;34.18;;;;;;;9.85;64.59;99746.26;1757706;81;21530;-41
2021/04/13 04:46:39;;;;;;;51.28;34.43;;;;;;;9.86;64.56;99740.28;1747655;81;21273;-42
2021/04/13 04:49:16;;;;;;;46.63;32.28;;;;;;;9.85;64.63;99743.55;1734026;81;21170;-42
2021/04/13 04:51:53;;;;;;;45.65;32.93;;;;;;;9.88;64.63;99732.02;1747449;81;21213;-42
2021/04/13 04:54:21;;;;;;;49.05;34.90;;;;;;;10.00;64.42;99740.10;1750355;82;21202;-42
2021/04/13 04:56:49;;;;;;;51.10;34.40;;;;;;;10.02;64.33;99739.77;1750470;82;21171;-41
2021/04/13 04:59:18;;;;;;;54.70;35.08;;;;;;;10.00;64.28;99741.45;1750500;82;21469;-42
2021/04/13 05:01:47;;;;;;;50.30;35.25;;;;;;;9.98;64.35;99747.77;1751442;81;21198;-42
2021/04/13 05:04:16;;;;;;;;;;;;;;;9.97;64.40;99749.50;1768466;81;21151;-43
2021/04/13 05:06:44;;;;;;;54.40;32.50;;;;;;;9.97;64.41;99752.20;1769553;81;20274;-44
2021/04/13 05:09:12;;;;;;;47.43;32.80;;;;;;;9.92;64.62;99742.37;1769348;81;21131;-44
2021/04/13 05:11:41;;;;;;;51.10;34.33;;;;;;;10.01;64.59;99743.60;1769189;81;21444;-44
2021/04/13 05:14:11;;;;;;;49.80;33.55;;;;;;;10.09;64.31;99747.28;1759332;81;21185;-44
2021/04/13 05:16:39;;;;;;;52.20;35.35;;;;;;;10.16;64.15;99744.80;1754274;81;21170;-44
2021/04/13 05:19:07;;;;;;;58.42;35.92;;;;;;;10.20;64.00;99741.61;1737056;82;21631;-44
2021/04/13 05:21:36;;;;;;;56.98;35.90;;;;;;;10.19;63.93;99740.83;1737181;82;21178;-44
2021/04/13 05:24:06;;;;;;;50.83;34.95;;;;;;;10.19;63.92;99734.61;1751864;81;22123;-44
2021/04/13 05:26:34;;;;;;;52.55;34.15;;;;;;;10.18;63.97;99739.24;1751621;81;21198;-44
2021/04/13 05:29:05;;;;;;;53.95;33.83;;;;;;;10.19;63.96;99734.61;1759914;80;22144;-44
2021/04/13 05:31:39;;;;;;;50.58;35.28;;;;;;;10.25;63.90;99733.23;1782540;80;21209;-44
2021/04/13 05:34:10;;;;;;;49.40;34.03;;;;;;;10.28;63.84;99729.81;1782496;80;21154;-44
2021/04/13 05:36:39;;;;;;;54.05;36.35;;;;;;;10.30;63.99;99732.98;1782451;79;21950;-44
2021/04/13 05:39:08;;;;;;;51.55;34.60;;;;;;;10.31;64.05;99726.42;1780294;79;21294;-44
2021/04/13 05:41:38;;;;;;;54.60;33.95;;;;;;;10.34;63.85;99732.49;1747337;81;21621;-44
2021/04/13 05:44:06;;;;;;;50.58;33.58;;;;;;;10.36;63.79;99729.64;1768278;81;21151;-44
2021/04/13 05:46:34;;;;;;;45.50;33.60;;;;;;;10.39;63.61;99737.66;1768220;80;21075;-44
2021/04/13 05:49:03;;;;;;;50.25;33.23;;;;;;;10.41;63.55;99728.59;1768347;81;22356;-44
2021/04/13 05:51:32;;;;;;;49.63;33.15;;;;;;;10.48;63.42;99727.43;1768088;81;21199;-44
2021/04/13 05:54:00;;;;;;;50.98;33.80;;;;;;;10.60;63.24;99721.91;1768186;80;21490;-44
2021/04/13 05:56:35;;;;;;;48.65;32.50;;;;;;;10.73;62.85;99728.83;1768088;80;21166;-44
2021/04/13 05:59:06;;;;;;;52.03;33.48;;;;;;;10.76;62.65;99724.05;1768153;81;21175;-44
2021/04/13 06:01:33;;;;;;;;;;;;;;;10.78;62.64;99724.50;1748963;81;21491;-44
2021/04/13 06:04:03;;;;;;;57.15;34.45;;;;;;;10.76;62.64;99724.62;1768234;81;20911;-44
2021/04/13 06:06:34;;;;;;;52.58;33.85;;;;;;;10.67;62.94;99725.38;1768307;80;21174;-44
2021/04/13 06:09:04;;;;;;;54.00;34.27;;;;;;;10.67;62.93;99728.08;1768228;81;21487;-44
2021/04/13 06:11:32;;;;;;;50.20;33.15;;;;;;;10.66;62.83;99724.58;1768485;81;21167;-44
2021/04/13 06:14:02;;;;;;;52.78;35.80;;;;;;;10.67;62.86;99725.38;1768157;80;21206;-44
2021/04/13 06:16:36;;;;;;;54.60;36.03;;;;;;;10.69;62.92;99716.33;1768150;81;21163;-44
2021/04/13 06:19:01;;;;;;;;;;;;;;;10.67;62.91;99716.67;1770522;80;21605;-44
2021/04/13 06:21:29;;;;;;;50.85;35.52;;;;;;;10.66;63.03;99723.22;1768152;81;20263;-44
2021/04/13 06:23:57;;;;;;;53.80;35.38;;;;;;;10.54;63.41;99720.62;1768346;80;21108;-44
2021/04/13 06:26:25;;;;;;;52.38;35.92;;;;;;;10.57;63.45;99719.91;1758684;81;21487;-44
2021/04/13 06:28:55;;;;;;;53.15;34.13;;;;;;;10.61;63.48;99713.20;1737963;81;21645;-44
2021/04/13 06:31:23;;;;;;;51.00;34.18;;;;;;;10.45;63.26;99682.06;1739351;82;21186;-44
2021/04/13 06:33:51;;;;;;;59.27;36.50;;;;;;;10.86;62.84;99718.09;1708736;82;21757;-44
2021/04/13 06:36:23;;;;;;;55.30;37.00;;;;;;;10.99;62.56;99718.00;1743304;81;21131;-44
2021/04/13 06:38:52;;;;;;;52.62;36.42;;;;;;;11.02;62.37;99720.78;1743109;82;21433;-44
2021/04/13 06:41:48;;;;;;;53.53;37.70;;;;;;;11.05;62.09;99724.70;1749178;82;21617;-44
2021/04/13 06:44:50;;;;;;;52.55;36.77;;;;;;;11.06;62.04;99711.36;1749528;82;21445;-44
2021/04/13 06:48:00;;;;;;;57.23;37.08;;;;;;;11.05;62.03;99711.14;1813549;79;21150;-44
2021/04/13 06:50:58;;;;;;;57.62;37.05;;;;;;;11.06;62.28;99717.58;1813724;78;27270;-44
2021/04/13 06:53:49;;;;;;;54.50;34.67;;;;;;;11.08;62.15;99712.59;1813577;78;21455;-44
2021/04/13 06:56:40;;;;;;;55.63;36.63;;;;;;;11.14;62.10;99719.87;1813427;79;21126;-44
2021/04/13 06:59:31;;;;;;;51.75;36.20;;;;;;;11.22;61.76;99712.91;1813545;78;21921;-44
2021/04/13 07:02:01;;;;;;;53.87;36.45;;;;;;;11.28;61.63;99712.03;1813979;78;22079;-43
2021/04/13 07:04:52;;;;;;;55.03;36.17;;;;;;;11.33;61.49;99713.11;1813700;78;21174;-43
2021/04/13 07:07:37;;;;;;;57.60;38.28;;;;;;;11.36;61.31;99715.70;1813567;79;21239;-43
2021/04/13 07:10:25;;;;;;;53.98;36.70;;;;;;;11.36;61.18;99716.49;1813459;78;21665;-43
2021/04/13 07:13:09;;;;;;;55.43;40.25;;;;;;;11.38;61.12;99714.76;1813610;78;21265;-44
2021/04/13 07:15:59;;;;;;;59.90;39.03;;;;;;;11.39;61.05;99718.48;1813621;78;21016;-43
2021/04/13 07:18:57;;;;;;;61.77;38.88;;;;;;;11.39;61.04;99718.48;1813585;79;21166;-43
2021/04/13 07:21:39;;;;;;;58.10;37.40;;;;;;;11.39;61.15;99723.91;1813644;78;21176;-43
2021/04/13 07:24:20;;;;;;;52.17;36.50;;;;;;;11.38;61.01;99720.19;1820390;77;21112;-43
2021/04/13 07:26:57;;;;;;;54.35;36.68;;;;;;;11.39;61.00;99723.12;1811325;78;21158;-43
2021/04/13 07:29:34;;;;;;;59.75;37.95;;;;;;;11.42;61.04;99723.22;1782498;80;21133;-44
2021/04/13 07:32:18;;;;;;;52.08;37.50;;;;;;;11.44;60.71;99718.20;1794279;80;21188;-43
2021/04/13 07:34:49;;;;;;;61.45;39.38;;;;;;;11.43;60.48;99722.62;1794425;80;21548;-43
2021/04/13 07:37:36;;;;;;;57.80;39.23;;;;;;;11.39;60.44;99725.27;1794379;79;21188;-44
2021/04/13 07:40:13;;;;;;;64.03;41.10;;;;;;;11.33;60.35;99719.90;1788685;80;21190;-43
2021/04/13 07:43:20;;;;;;;58.48;39.78;;;;;;;11.27;60.46;99726.77;1772752;80;21213;-44
2021/04/13 07:46:00;;;;;;;58.83;38.23;;;;;;;11.23;60.84;99725.91;1772758;80;21150;-44
2021/04/13 07:48:45;;;;;;;52.88;37.10;;;;;;;11.24;61.19;99727.45;1772558;80;21260;-44
2021/04/13 07:51:22;;;;;;;58.68;38.15;;;;;;;11.26;61.08;99731.41;1772691;80;21150;-43
2021/04/13 07:54:12;;;;;;;60.55;40.00;;;;;;;11.30;61.11;99722.77;1769981;80;21652;-43
2021/04/13 07:57:01;;;;;;;56.77;39.65;;;;;;;11.36;61.18;99731.42;1772370;80;21174;-43
2021/04/13 08:00:07;;;;;;;55.60;39.23;;;;;;;11.41;61.02;99726.28;1772592;80;21750;-44
2021/04/13 08:02:47;;;;;;;60.75;42.13;;;;;;;11.42;61.07;99731.36;1772684;80;21354;-43
2021/04/13 08:05:36;;;;;;;63.45;42.58;;;;;;;11.47;61.08;99722.16;1743790;80;21134;-44
2021/04/13 08:08:36;;;;;;;59.55;40.67;;;;;;;11.48;61.18;99726.42;1772750;80;21039;-43
2021/04/13 08:11:16;;;;;;;60.23;39.45;;;;;;;11.53;61.15;99722.06;1772729;80;21345;-44
2021/04/13 08:13:51;;;;;;;55.28;36.95;;;;;;;11.59;61.33;99713.28;1740208;80;21134;-43
2021/04/13 08:16:37;;;;;;;57.83;39.00;;;;;;;11.63;61.20;99719.57;1772649;80;21197;-44
2021/04/13 08:19:31;;;;;;;58.30;39.00;;;;;;;11.65;61.15;99718.66;1772579;80;21205;-44
2021/04/13 08:22:18;;;;;;;66.25;38.65;;;;;;;11.67;61.30;99721.78;1772742;80;21158;-45
2021/04/13 08:24:57;;;;;;;57.27;39.27;;;;;;;11.66;61.41;99719.44;1772672;80;21163;-45
2021/04/13 08:27:44;;;;;;;58.05;38.10;;;;;;;11.62;61.57;99719.35;1794130;79;21150;-45
2021/04/13 08:30:43;;;;;;;53.00;36.20;;;;;;;11.62;61.90;99715.27;1801882;79;21442;-45
2021/04/13 08:33:36;;;;;;;57.45;37.13;;;;;;;11.66;62.19;99718.87;1801086;79;21860;-45
2021/04/13 08:36:24;;;;;;;56.35;38.08;;;;;;;11.70;62.48;99721.66;1770432;81;20956;-44
2021/04/13 08:39:08;;;;;;;62.43;37.30;;;;;;;11.71;62.93;99718.56;1770280;81;21697;-43
2021/04/13 08:41:46;;;;;;;59.95;36.25;;;;;;;11.73;63.05;99712.81;1771485;80;21119;-43
2021/04/13 08:44:47;;;;;;;55.48;35.33;;;;;;;11.76;63.40;99710.16;1772168;80;21263;-43
2021/04/13 08:47:30;;;;;;;56.23;36.40;;;;;;;11.81;63.54;99715.11;1772018;80;21169;-43
2021/04/13 08:50:00;;;;;;;57.85;35.98;;;;;;;11.87;63.79;99706.30;1771400;80;21055;-44
2021/04/13 08:52:42;;;;;;;65.08;38.10;;;;;;;11.82;64.08;99701.72;1772085;80;21158;-44
2021/04/13 08:55:16;;;;;;;60.55;37.65;;;;;;;11.80;64.28;99705.38;1766831;81;21162;-43
2021/04/13 08:58:03;;;;;;;57.38;36.10;;;;;;;11.79;64.60;99702.45;1772167;81;21731;-43
2021/04/13 09:00:47;;;;;;;40.40;27.48;;;;;;;11.81;64.77;99702.89;1772167;80;21044;-43
2021/04/13 09:03:28;;;;;;;57.58;36.23;;;;;;;11.90;64.60;99705.59;1772819;79;21176;-44
2021/04/13 09:06:13;;;;;;;62.50;36.95;;;;;;;11.95;64.61;99700.44;1770602;79;21127;-43
2021/04/13 09:09:13;;;;;;;65.67;39.25;;;;;;;11.97;64.52;99698.91;1803693;79;21598;-45
2021/04/13 09:12:05;;;;;;;59.20;37.93;;;;;;;12.07;64.55;99693.47;1845619;76;22825;-44
2021/04/13 09:14:52;;;;;;;56.35;36.70;;;;;;;12.05;64.30;99691.09;1816086;78;21158;-44
2021/04/13 09:17:44;;;;;;;59.50;38.67;;;;;;;12.14;63.85;99697.11;1811796;79;21280;-43
2021/04/13 09:20:21;;;;;;;62.83;40.17;;;;;;;12.21;63.77;99695.07;1815584;79;21605;-44
2021/04/13 09:23:22;;;;;;;67.45;40.98;;;;;;;12.29;63.59;99689.20;1798705;79;20932;-44
2021/04/13 09:26:00;;;;;;;71.95;39.67;;;;;;;12.26;63.78;99694.77;1813248;78;21008;-44
2021/04/13 09:28:44;;;;;;;63.15;39.13;;;;;;;12.18;63.98;99689.02;1784109;80;20968;-44
2021/04/13 09:31:31;;;;;;;63.55;40.73;;;;;;;12.22;64.01;99687.14;1844293;76;22940;-44
2021/04/13 09:34:38;;;;;;;68.80;40.85;;;;;;;12.18;63.95;99698.52;1762550;80;21031;-44
2021/04/13 09:37:35;;;;;;;64.77;42.30;;;;;;;12.16;63.86;99697.52;1783557;80;21211;-44
2021/04/13 09:40:24;;;;;;;67.32;41.55;;;;;;;12.21;63.67;99693.72;1753225;80;20953;-45
2021/04/13 09:43:26;;;;;;;62.65;41.70;;;;;;;12.26;63.66;99692.05;1783567;80;21055;-44
2021/04/13 09:46:23;;;;;;;66.07;41.88;;;;;;;12.30;63.66;99690.75;1783561;80;21050;-44
2021/04/13 09:49:11;;;;;;;68.10;42.65;;;;;;;12.30;63.58;99694.26;1783558;80;21341;-44
2021/04/13 09:52:14;;;;;;;69.87;43.02;;;;;;;12.27;63.67;99688.20;1748627;82;21366;-44
2021/04/13 09:54:45;;;;;;;60.67;41.45;;;;;;;12.26;63.83;99679.83;1748742;82;21073;-44
2021/04/13 09:57:41;;;;;;;66.22;40.78;;;;;;;12.27;63.64;99686.84;1749044;82;21649;-44
2021/04/13 10:00:38;;;;;;;55.65;39.67;;;;;;;12.32;63.71;99682.45;1670413;83;21191;-45
2021/04/13 10:03:20;;;;;;;65.30;41.45;;;;;;;12.40;63.80;99684.70;1748765;82;21157;-44
2021/04/13 10:05:49;;;;;;;64.67;42.13;;;;;;;12.45;63.67;99678.97;1717408;83;21361;-44
2021/04/13 10:08:27;;;;;;;58.38;40.00;;;;;;;12.43;63.73;99678.56;1748631;82;21187;-44
2021/04/13 10:11:22;;;;;;;63.78;42.08;;;;;;;12.47;63.54;99675.32;1748760;82;21173;-44
2021/04/13 10:14:28;;;;;;;69.03;42.03;;;;;;;12.48;63.57;99677.69;1696097;83;21077;-44
2021/04/13 10:17:52;;;;;;;58.48;38.60;;;;;;;12.51;63.65;99678.31;1748763;82;21159;-44
2021/04/13 10:21:06;;;;;;;51.42;37.10;;;;;;;12.55;63.63;99668.84;1748740;82;21250;-44
2021/04/13 10:23:45;;;;;;;57.80;37.85;;;;;;;12.52;63.14;99668.22;1748684;82;21646;-44
2021/04/13 10:26:40;;;;;;;55.50;35.98;;;;;;;12.52;63.19;99674.45;1747711;80;21026;-44
2021/04/13 10:30:05;;;;;;;53.05;36.88;;;;;;;12.54;62.91;99673.48;1748746;82;21170;-44
2021/04/13 10:33:29;;;;;;;53.48;35.92;;;;;;;12.59;62.97;99677.27;1779640;80;21187;-45
2021/04/13 10:36:24;;;;;;;50.23;34.58;;;;;;;12.63;62.59;99669.17;1779703;80;21177;-44
2021/04/13 10:39:27;;;;;;;47.73;32.15;;;;;;;12.61;62.18;99674.98;1779653;80;21135;-44
2021/04/13 10:42:16;;;;;;;51.08;35.92;;;;;;;12.55;61.82;99666.91;1767173;80;21765;-44
2021/04/13 10:45:31;;;;;;;54.08;36.70;;;;;;;12.55;62.43;99662.83;1747475;82;21215;-44
2021/04/13 10:48:40;;;;;;;44.58;31.30;;;;;;;12.59;62.59;99666.38;1753918;81;21111;-44
2021/04/13 10:51:57;;;;;;;44.08;30.30;;;;;;;12.61;61.56;99668.17;1743114;82;21425;-44
2021/04/13 10:54:38;;;;;;;;;;;;;;;12.63;61.16;99667.22;1724268;83;21047;-44
2021/04/13 10:57:57;;;;;;;41.15;29.00;;;;;;;12.70;61.09;99667.13;1716764;83;20317;-44
2021/04/13 11:00:43;;;;;;;43.90;31.57;;;;;;;12.61;60.97;99668.17;1748550;81;21181;-44
2021/04/13 11:03:48;;;;;;;44.48;31.00;;;;;;;12.62;60.95;99657.52;1748305;82;21144;-44
2021/04/13 11:06:56;;;;;;;42.13;30.45;;;;;;;12.64;61.04;99662.56;1748186;82;21433;-45
2021/04/13 11:09:49;;;;;;;43.08;29.77;;;;;;;12.67;60.88;99655.63;1748144;81;21283;-44
2021/04/13 11:13:02;;;;;;;45.17;29.60;;;;;;;12.70;60.78;99658.96;1748184;82;21169;-45
2021/04/13 11:15:52;;;;;;;44.20;30.00;;;;;;;12.71;60.51;99658.61;1699815;82;21199;-44
2021/04/13 11:18:49;;;;;;;45.50;29.30;;;;;;;12.70;60.57;99657.60;1748179;82;21190;-44
2021/04/13 11:21:41;;;;;;;40.63;29.07;;;;;;;12.73;60.63;99648.73;1743639;82;21488;-44
2021/04/13 11:24:40;;;;;;;39.33;28.40;;;;;;;12.80;60.30;99646.09;1747073;82;21584;-44
2021/04/13 11:27:23;;;;;;;41.77;30.60;;;;;;;12.88;60.05;99646.39;1739869;80;21191;-45
2021/04/13 11:30:18;;;;;;;39.35;28.70;;;;;;;12.88;60.02;99645.03;1745549;82;21145;-45
2021/04/13 11:33:17;;;;;;;40.92;29.18;;;;;;;12.85;60.00;99649.29;1737661;82;21036;-43
2021/04/13 11:36:24;;;;;;;45.00;31.27;;;;;;;12.83;60.01;99641.30;1706667;84;21211;-44
2021/04/13 11:39:05;;;;;;;40.38;28.30;;;;;;;12.79;60.32;99635.00;1737619;82;21123;-43
2021/04/13 11:42:10;;;;;;;44.42;30.08;;;;;;;12.77;60.33;99644.12;1714937;82;21200;-44
2021/04/13 11:45:04;;;;;;;43.75;31.42;;;;;;;12.80;60.33;99646.09;1737589;82;21013;-43
2021/04/13 11:47:53;;;;;;;41.83;30.05;;;;;;;12.77;60.45;99642.19;1737638;82;21212;-43
2021/04/13 11:50:38;;;;;;;46.00;29.77;;;;;;;12.75;60.57;99651.85;1737684;82;21360;-44
2021/04/13 11:53:13;;;;;;;40.98;28.67;;;;;;;12.76;60.59;99645.27;1737144;82;21138;-43
2021/04/13 11:55:47;;;;;;;40.43;29.12;;;;;;;12.86;60.45;99643.27;1737496;82;21022;-44
2021/04/13 11:58:22;;;;;;;41.50;28.77;;;;;;;12.95;60.36;99641.06;1737627;82;21408;-44
2021/04/13 12:00:57;;;;;;;40.25;29.12;;;;;;;12.98;60.06;99644.40;1737641;82;21126;-44
2021/04/13 12:03:31;;;;;;;44.48;30.68;;;;;;;12.99;60.03;99639.95;1707463;82;21211;-43
2021/04/13 12:06:03;;;;;;;44.70;31.33;;;;;;;12.99;59.83;99638.59;1737671;82;21196;-43
2021/04/13 12:08:38;;;;;;;42.35;29.27;;;;;;;12.99;59.76;99636.45;1737574;82;21195;-44
2021/04/13 12:11:20;;;;;;;41.65;30.45;;;;;;;12.90;59.70;99621.77;1737580;82;21040;-44
2021/04/13 12:13:49;;;;;;;41.95;31.25;;;;;;;12.88;59.80;99629.50;1721518;82;21143;-44
2021/04/13 12:16:22;;;;;;;50.12;32.00;;;;;;;12.85;59.89;99629.45;1737704;82;21449;-44
2021/04/13 12:19:13;;;;;;;47.43;31.52;;;;;;;12.77;60.24;99625.86;1737539;82;21028;-44
2021/04/13 12:22:00;;;;;;;45.48;30.45;;;;;;;12.70;60.52;99624.96;1737562;82;21048;-44
2021/04/13 12:24:44;;;;;;;42.20;30.85;;;;;;;12.66;60.73;99622.20;1737549;82;21748;-44
2021/04/13 12:27:33;;;;;;;42.65;31.12;;;;;;;12.72;60.74;99623.45;1737597;80;21186;-44
2021/04/13 12:30:30;;;;;;;45.12;31.02;;;;;;;12.75;60.68;99622.71;1768511;80;22322;-44
2021/04/13 12:33:01;;;;;;;42.67;30.02;;;;;;;12.74;60.60;99627.94;1752899;81;21534;-44